Time;durP1;ratioP1;P1;durP2;ratioP2;P2;SDS_P1;SDS_P2;PMS_P1;PMS_P2;Temp;Humidity;BMP_temperature;BMP_pressure;BME280_temperature;BME280_humidity;BME280_pressure;Samples;Min_cycle;Max_cycle;Signal;HPM_P1;HPM_P2
2022/05/23 00:01:42;;;;;;;2.28;1.55;;;;;;;26.14;51.90;100151.34;5024941;28;20116;-74
2022/05/23 00:04:08;;;;;;;1.65;1.40;;;;;;;26.15;52.13;100088.09;5024960;28;20478;-71
2022/05/23 00:06:34;;;;;;;2.35;1.30;;;;;;;26.13;52.11;100005.56;5023454;28;20029;-72
2022/05/23 00:09:00;;;;;;;2.03;1.42;;;;;;;26.13;52.06;99939.63;5025648;28;20106;-73
2022/05/23 00:11:25;;;;;;;2.25;1.45;;;;;;;26.15;52.12;99904.69;5021479;28;20040;-71
2022/05/23 00:13:50;;;;;;;3.22;1.20;;;;;;;26.13;52.00;99880.09;5024900;28;20029;-72
2022/05/23 00:16:19;;;;;;;1.73;1.52;;;;;;;26.14;51.96;99860.34;5028546;28;20038;-71
2022/05/23 00:18:45;;;;;;;1.92;1.35;;;;;;;26.15;51.86;99863.81;5027080;28;20525;-72
2022/05/23 00:21:11;;;;;;;2.65;0.93;;;;;;;26.16;51.90;99892.13;5025894;28;20047;-71
2022/05/23 00:23:36;;;;;;;1.88;1.00;;;;;;;26.16;51.84;99910.81;5029306;28;20029;-72
2022/05/23 00:26:02;;;;;;;1.88;1.05;;;;;;;26.16;51.87;99908.16;5023898;28;20030;-71
2022/05/23 00:28:27;;;;;;;1.40;1.13;;;;;;;26.17;51.73;99904.41;5025776;28;20025;-72
2022/05/23 00:30:52;;;;;;;1.70;1.13;;;;;;;26.16;51.81;99892.13;5027326;28;20076;-70
2022/05/23 00:36:02;;;;;;;1.75;0.93;;;;;;;26.15;51.85;99917.22;5027367;28;20125;-71
2022/05/23 00:38:28;;;;;;;1.85;1.10;;;;;;;26.17;52.00;99925.78;5030645;28;20104;-72
2022/05/23 00:43:50;;;;;;;1.15;0.70;;;;;;;26.13;51.82;99926.28;5029319;28;20095;-72
2022/05/23 00:46:15;;;;;;;3.03;1.27;;;;;;;26.15;51.89;99914.56;5025138;28;20041;-71
2022/05/23 00:48:41;;;;;;;2.25;1.55;;;;;;;26.13;51.98;99904.94;5026278;28;20033;-72
2022/05/23 00:51:12;;;;;;;1.70;1.45;;;;;;;26.13;52.12;99896.13;5023644;28;20115;-71
2022/05/23 00:53:42;;;;;;;1.63;1.42;;;;;;;26.13;51.93;99899.59;5028759;28;20208;-72
2022/05/23 00:56:09;;;;;;;2.80;1.52;;;;;;;26.13;51.79;99907.59;5025398;28;20033;-72
2022/05/23 00:58:49;;;;;;;3.75;1.58;;;;;;;26.12;51.84;99897.19;5028373;28;20028;-71
2022/05/23 01:01:22;;;;;;;4.63;1.20;;;;;;;26.11;51.93;99899.06;5024162;28;20037;-72
2022/05/23 01:03:48;;;;;;;1.65;1.02;;;;;;;26.10;51.78;99900.13;5025820;28;20033;-72
2022/05/23 01:06:13;;;;;;;3.88;1.65;;;;;;;26.10;51.92;99900.13;5024462;28;20497;-71
2022/05/23 01:08:40;;;;;;;2.05;1.20;;;;;;;26.11;51.80;99896.38;5026220;28;20430;-71
2022/05/23 01:11:07;;;;;;;1.65;1.10;;;;;;;26.10;51.74;99884.09;5023091;28;20421;-71
2022/05/23 01:13:34;;;;;;;2.05;1.05;;;;;;;26.11;51.78;99877.69;5016170;28;20068;-71
2022/05/23 01:15:59;;;;;;;2.72;1.20;;;;;;;26.10;51.69;99868.06;5024884;28;20041;-72
2022/05/23 01:18:25;;;;;;;2.33;1.45;;;;;;;26.11;51.98;99875.03;5026092;28;20026;-72
2022/05/23 01:20:57;;;;;;;1.67;1.30;;;;;;;26.10;51.71;99861.94;5025513;28;20045;-71
2022/05/23 01:23:47;;;;;;;1.75;1.50;;;;;;;26.07;51.86;99843.78;5024849;28;20460;-71
2022/05/23 01:26:13;;;;;;;2.22;1.35;;;;;;;26.09;51.85;99845.13;5025632;28;20241;-71
2022/05/23 01:28:39;;;;;;;1.60;1.08;;;;;;;26.09;51.67;99831.78;5024403;28;20108;-70
2022/05/23 01:31:06;;;;;;;2.15;1.33;;;;;;;26.11;51.77;99824.31;5021480;28;20037;-72
2022/05/23 01:33:32;;;;;;;1.90;1.05;;;;;;;26.13;51.76;99813.38;5028231;28;20036;-71
2022/05/23 01:35:59;;;;;;;2.08;1.13;;;;;;;26.14;51.70;99806.97;5027448;28;20029;-73
2022/05/23 01:38:25;;;;;;;1.80;1.27;;;;;;;26.14;51.58;99798.94;5027488;28;20480;-72
2022/05/23 01:40:51;;;;;;;2.15;1.15;;;;;;;26.15;51.63;99800.56;5024552;28;20029;-72
2022/05/23 01:43:16;;;;;;;3.63;1.35;;;;;;;26.16;51.59;99796.03;5023334;28;20029;-73
2022/05/23 01:45:42;;;;;;;1.27;0.90;;;;;;;26.17;51.65;99798.44;5020948;28;20018;-73
2022/05/23 01:48:08;;;;;;;1.98;1.05;;;;;;;26.17;51.56;99802.97;5023520;28;20606;-72
2022/05/23 01:50:35;;;;;;;1.58;1.20;;;;;;;26.18;51.73;99801.91;5026805;28;20025;-72
2022/05/23 01:53:00;;;;;;;2.75;1.35;;;;;;;26.16;51.76;99791.50;5024118;28;20401;-72
2022/05/23 01:55:26;;;;;;;2.40;1.25;;;;;;;26.17;51.70;99793.09;5024074;28;20041;-73
2022/05/23 01:57:52;;;;;;;1.73;1.20;;;;;;;26.16;51.67;99790.69;5026839;28;20547;-71
2022/05/23 02:03:03;;;;;;;1.10;0.90;;;;;;;26.12;51.76;99823.25;5027081;28;20052;-71
2022/05/23 02:05:28;;;;;;;2.67;1.13;;;;;;;26.14;51.58;99814.97;5025718;28;20029;-71
2022/05/23 02:07:55;;;;;;;4.85;1.30;;;;;;;26.12;51.83;99817.91;5023685;28;20056;-71
2022/05/23 02:10:21;;;;;;;1.40;1.30;;;;;;;26.13;51.65;99816.84;5021377;28;20029;-72
2022/05/23 02:12:47;;;;;;;2.95;1.13;;;;;;;26.13;51.74;99824.84;5024953;28;20041;-72
2022/05/23 02:15:13;;;;;;;2.40;1.00;;;;;;;26.12;51.66;99828.59;5026019;28;20037;-72
2022/05/23 02:17:39;;;;;;;2.25;1.17;;;;;;;26.12;51.86;99830.44;5023634;28;20033;-71
2022/05/23 02:20:06;;;;;;;1.77;1.23;;;;;;;26.11;51.66;99826.16;5024075;28;20036;-71
2022/05/23 02:22:32;;;;;;;1.98;1.02;;;;;;;26.10;51.80;99825.38;5023851;28;20036;-72
2022/05/23 02:24:57;;;;;;;2.08;1.20;;;;;;;26.10;51.60;99836.03;5024786;28;20025;-71
2022/05/23 02:27:23;;;;;;;1.13;1.00;;;;;;;26.10;51.79;99841.38;5026020;28;20021;-71
2022/05/23 02:29:48;;;;;;;0.90;0.70;;;;;;;26.10;51.60;99851.25;5022827;28;20036;-71
2022/05/23 02:32:14;;;;;;;1.20;0.85;;;;;;;26.10;51.70;99857.41;5022308;28;20033;-72
2022/05/23 02:34:41;;;;;;;1.70;1.10;;;;;;;26.10;51.70;99856.59;5025821;28;20528;-72
2022/05/23 02:37:06;;;;;;;1.38;0.90;;;;;;;26.10;51.74;99864.59;5025754;28;20033;-71
2022/05/23 02:39:32;;;;;;;2.67;1.23;;;;;;;26.11;51.72;99872.34;5025410;28;20485;-71
2022/05/23 02:41:57;;;;;;;2.25;1.20;;;;;;;26.10;51.72;99869.94;5023198;28;20478;-71
2022/05/23 02:44:22;;;;;;;1.33;1.00;;;;;;;26.10;51.81;99878.75;5025277;28;20052;-73
2022/05/23 02:46:48;;;;;;;3.30;0.90;;;;;;;26.10;51.74;99878.75;5023451;28;20068;-71
2022/05/23 02:49:14;;;;;;;1.92;1.02;;;;;;;26.10;51.72;99884.09;5027243;28;20075;-71
2022/05/23 02:51:40;;;;;;;1.30;1.20;;;;;;;26.10;51.69;99892.09;5020840;28;20081;-71
2022/05/23 02:54:06;;;;;;;1.40;1.23;;;;;;;26.10;51.93;99899.31;5024378;28;20453;-71
2022/05/23 02:56:31;;;;;;;1.38;1.10;;;;;;;26.10;51.82;99915.31;5023538;28;20122;-71
2022/05/23 02:58:57;;;;;;;5.00;1.63;;;;;;;26.09;51.92;99914.53;5025666;28;20056;-71
2022/05/23 03:01:23;;;;;;;1.80;0.90;;;;;;;26.10;51.80;99918.81;5021834;28;20052;-71
2022/05/23 03:03:48;;;;;;;1.40;1.10;;;;;;;26.09;51.92;99922.53;5022756;28;20403;-70
2022/05/23 03:06:14;;;;;;;1.70;1.20;;;;;;;26.10;51.92;99918.81;5022245;28;20446;-71
2022/05/23 03:08:40;;;;;;;2.97;1.23;;;;;;;26.10;51.97;99907.31;5027141;28;20033;-71
2022/05/23 03:11:08;;;;;;;1.75;1.50;;;;;;;26.10;51.73;99908.13;5020158;28;20057;-71
2022/05/23 03:13:34;;;;;;;2.15;1.50;;;;;;;26.10;52.05;99910.78;5022196;28;20034;-71
2022/05/23 03:16:01;;;;;;;1.67;0.98;;;;;;;26.10;51.99;99905.44;5022728;28;20040;-72
2022/05/23 03:18:28;;;;;;;2.83;1.50;;;;;;;26.10;52.05;99916.13;5023346;28;20029;-71
2022/05/23 03:21:01;;;;;;;2.22;1.02;;;;;;;26.11;51.94;99928.41;5026056;28;20031;-72
2022/05/23 03:28:55;;;;;;;1.35;0.80;;;;;;;26.10;52.10;99926.00;5026696;28;20094;-71
2022/05/23 03:31:21;;;;;;;1.33;1.00;;;;;;;26.09;52.06;99935.06;5022102;28;20428;-71
2022/05/23 03:33:46;;;;;;;2.05;1.08;;;;;;;26.09;51.93;99930.53;5020975;28;20028;-71
2022/05/23 03:36:12;;;;;;;2.47;0.80;;;;;;;26.10;52.00;99932.16;5026691;28;20434;-73
2022/05/23 03:38:37;;;;;;;1.40;1.30;;;;;;;26.09;51.92;99945.75;5025998;28;20049;-71
2022/05/23 03:41:07;;;;;;;2.45;1.40;;;;;;;26.09;51.89;99940.41;5024334;28;20022;-70
2022/05/23 03:43:32;;;;;;;1.00;0.90;;;;;;;26.10;51.88;99947.34;5020021;28;20033;-71
2022/05/23 03:46:05;;;;;;;1.80;1.17;;;;;;;26.10;51.86;99947.34;5024593;28;20021;-72
2022/05/23 03:48:31;;;;;;;1.38;1.00;;;;;;;26.08;51.96;99939.59;5029008;28;20125;-72
2022/05/23 03:50:56;;;;;;;2.00;1.02;;;;;;;26.09;51.92;99951.91;5026141;28;20026;-71
2022/05/23 03:53:22;;;;;;;1.30;0.80;;;;;;;26.09;51.91;99941.22;5025132;28;20053;-71
2022/05/23 03:55:51;;;;;;;2.83;1.30;;;;;;;26.09;51.80;99946.56;5027868;28;20029;-72
2022/05/23 03:58:16;;;;;;;2.63;1.00;;;;;;;26.10;51.89;99952.69;5029491;28;20030;-70
2022/05/23 04:00:43;;;;;;;1.30;0.98;;;;;;;26.09;51.84;99946.56;5029533;28;20033;-71
2022/05/23 04:03:09;;;;;;;1.48;1.10;;;;;;;26.10;52.00;99948.16;5027422;28;20649;-71
2022/05/23 04:05:34;;;;;;;2.42;0.90;;;;;;;26.09;51.79;99949.22;5042950;28;20025;-71
2022/05/23 04:08:00;;;;;;;1.27;0.90;;;;;;;26.08;51.82;99955.63;5026977;28;20088;-72
2022/05/23 04:10:25;;;;;;;1.33;0.93;;;;;;;26.08;51.98;99954.81;5028675;28;20033;-72
2022/05/23 04:12:51;;;;;;;1.20;1.10;;;;;;;26.07;51.94;99943.34;5026125;28;20447;-71
2022/05/23 04:15:17;;;;;;;2.75;1.55;;;;;;;26.07;52.14;99946.00;5027118;28;20037;-73
2022/05/23 04:17:42;;;;;;;2.17;0.98;;;;;;;26.05;52.27;99940.13;5025317;28;20041;-73
2022/05/23 04:20:10;;;;;;;4.43;1.17;;;;;;;26.06;52.24;99943.59;5028003;28;20508;-72
2022/05/23 04:22:36;;;;;;;5.82;1.48;;;;;;;26.06;52.48;99947.06;5024856;28;20029;-72
2022/05/23 04:25:03;;;;;;;5.28;1.42;;;;;;;26.07;52.60;99959.34;5027346;28;20034;-70
2022/05/23 04:27:29;;;;;;;2.80;1.38;;;;;;;26.05;53.11;99958.81;5022890;28;20025;-71
2022/05/23 04:29:54;;;;;;;8.90;2.53;;;;;;;26.05;53.92;99966.81;5027896;28;20056;-71
2022/05/23 04:35:13;;;;;;;4.47;2.00;;;;;;;26.03;54.00;99974.28;5026849;28;20067;-73
2022/05/23 04:37:40;;;;;;;8.27;1.73;;;;;;;26.06;54.60;99978.31;5021137;28;20406;-73
2022/05/23 04:40:06;;;;;;;5.50;2.15;;;;;;;26.06;54.77;99979.09;5030076;28;20070;-71
2022/05/23 04:42:31;;;;;;;6.47;1.98;;;;;;;26.09;54.82;99977.78;5026192;28;20037;-73
2022/05/23 04:44:56;;;;;;;6.50;2.85;;;;;;;25.99;54.96;99972.41;5026883;28;20033;-73
2022/05/23 04:50:07;;;;;;;5.60;1.95;;;;;;;25.93;54.88;99968.09;5028855;28;20048;-73
2022/05/23 04:52:32;;;;;;;7.82;2.35;;;;;;;25.97;54.70;99964.66;5028886;28;20764;-72
2022/05/23 04:54:58;;;;;;;3.67;2.05;;;;;;;26.01;54.82;99965.72;5030511;28;20442;-72
2022/05/23 04:57:23;;;;;;;2.53;2.15;;;;;;;26.04;54.59;99975.09;5027648;28;20488;-72
2022/05/23 04:59:48;;;;;;;4.57;3.25;;;;;;;26.01;55.00;99973.72;5030696;28;20081;-73
2022/05/23 05:02:14;;;;;;;7.18;3.08;;;;;;;25.83;55.79;99968.84;5030248;28;20029;-71
2022/05/23 05:04:40;;;;;;;5.10;2.88;;;;;;;25.68;56.01;99960.72;5034930;28;20099;-71
2022/05/23 05:07:06;;;;;;;5.28;2.08;;;;;;;25.69;55.98;99959.66;5033134;28;20044;-72
2022/05/23 05:09:32;;;;;;;2.92;1.52;;;;;;;25.75;55.85;99956.78;5029481;28;20112;-73
2022/05/23 05:11:57;;;;;;;5.47;2.63;;;;;;;25.81;55.59;99949.59;5027016;28;20033;-72
2022/05/23 05:14:23;;;;;;;5.68;2.28;;;;;;;25.82;55.74;99950.41;5027632;28;20040;-72
2022/05/23 05:16:49;;;;;;;12.60;2.80;;;;;;;25.80;55.84;99948.00;5029350;28;20087;-72
2022/05/23 05:19:15;;;;;;;8.73;2.35;;;;;;;25.68;55.92;99944.72;5026188;28;20080;-72
2022/05/23 05:21:40;;;;;;;5.68;2.13;;;;;;;25.48;55.86;99947.22;5029121;28;20037;-72
2022/05/23 05:24:06;;;;;;;3.33;1.55;;;;;;;25.42;55.75;99949.84;5026963;28;20029;-71
2022/05/23 05:26:31;;;;;;;9.52;2.20;;;;;;;25.51;55.67;99946.69;5028215;28;20040;-71
2022/05/23 05:28:57;;;;;;;7.65;2.30;;;;;;;25.55;55.83;99951.25;5026981;28;20029;-72
2022/05/23 05:31:35;;;;;;;2.53;1.77;;;;;;;25.60;55.89;99951.28;5029357;28;20461;-71
2022/05/23 05:34:11;;;;;;;4.18;2.03;;;;;;;25.63;56.03;99947.31;5028383;28;20427;-72
2022/05/23 05:36:42;;;;;;;3.28;2.17;;;;;;;25.63;56.33;99942.78;5028630;28;20242;-72
2022/05/23 05:39:08;;;;;;;6.40;2.47;;;;;;;25.59;56.48;99943.53;5027565;28;20026;-72
2022/05/23 05:41:43;;;;;;;5.93;2.28;;;;;;;25.58;56.65;99940.06;5027453;28;20041;-72
2022/05/23 05:44:18;;;;;;;3.85;1.70;;;;;;;25.57;56.51;99943.78;5029130;28;20029;-72
2022/05/23 05:46:54;;;;;;;8.10;2.20;;;;;;;25.58;56.47;99944.59;5020959;28;20033;-73
2022/05/23 05:49:24;;;;;;;2.88;1.83;;;;;;;25.61;56.54;99944.88;5026054;28;20565;-73
2022/05/23 05:51:54;;;;;;;5.32;2.00;;;;;;;25.66;56.29;99946.81;5029349;28;20033;-72
2022/05/23 05:54:23;;;;;;;6.13;1.80;;;;;;;25.65;56.42;99945.22;5026343;28;20049;-73
2022/05/23 05:56:50;;;;;;;4.28;2.22;;;;;;;25.62;56.50;99941.16;5028415;28;20037;-72
2022/05/23 05:59:17;;;;;;;6.20;3.08;;;;;;;25.49;57.61;99940.81;5025863;28;20103;-73
2022/05/23 06:01:42;;;;;;;4.90;2.70;;;;;;;25.39;58.03;99941.53;5027480;28;20039;-72
2022/05/23 06:04:08;;;;;;;5.70;3.40;;;;;;;25.30;58.78;99933.19;5019409;28;20105;-72
2022/05/23 06:12:01;;;;;;;5.93;2.40;;;;;;;25.16;59.10;99926.66;5025689;28;20048;-71
2022/05/23 06:14:27;;;;;;;8.30;3.35;;;;;;;25.15;59.11;99930.38;5029459;28;20049;-73
2022/05/23 06:16:52;;;;;;;6.18;3.08;;;;;;;25.03;59.63;99925.25;5027467;28;20029;-72
2022/05/23 06:19:19;;;;;;;6.00;3.25;;;;;;;25.09;59.82;99926.06;5026267;28;20063;-72
2022/05/23 06:21:45;;;;;;;5.03;3.67;;;;;;;25.11;59.89;99924.75;5026349;28;20051;-71
2022/05/23 06:24:12;;;;;;;8.00;2.85;;;;;;;25.21;59.48;99929.38;5025596;28;21359;-72
2022/05/23 06:26:37;;;;;;;8.68;3.22;;;;;;;25.28;59.35;99929.97;5024927;28;20029;-72
2022/05/23 06:29:03;;;;;;;6.60;3.10;;;;;;;25.34;59.54;99928.97;5027178;28;20036;-71
2022/05/23 06:31:28;;;;;;;4.38;2.35;;;;;;;25.37;59.60;99930.31;5028039;28;20445;-71
2022/05/23 06:33:54;;;;;;;4.60;2.65;;;;;;;25.38;59.39;99932.72;5028162;28;20653;-71
2022/05/23 06:36:19;;;;;;;3.17;2.03;;;;;;;25.41;59.08;99924.22;5026563;28;20033;-71
2022/05/23 06:38:45;;;;;;;10.10;2.70;;;;;;;25.45;58.59;99930.66;5025621;28;20104;-72
2022/05/23 06:41:11;;;;;;;2.90;1.83;;;;;;;25.49;58.48;99932.81;5027171;28;20034;-70
2022/05/23 06:43:38;;;;;;;5.45;2.15;;;;;;;25.51;58.16;99936.03;5028196;28;20151;-71
2022/05/23 06:46:04;;;;;;;5.25;1.75;;;;;;;25.53;58.36;99941.88;5027115;28;20040;-71
2022/05/23 06:48:30;;;;;;;5.57;2.47;;;;;;;25.52;57.98;99937.63;5025968;28;20026;-70
2022/05/23 06:50:56;;;;;;;4.40;1.55;;;;;;;25.49;57.60;99932.81;5024460;28;20025;-72
2022/05/23 06:53:24;;;;;;;3.47;2.17;;;;;;;25.46;57.77;99936.78;5027964;28;20126;-72
2022/05/23 06:55:51;;;;;;;4.63;1.80;;;;;;;25.44;58.08;99929.03;5023453;28;20040;-72
2022/05/23 06:58:17;;;;;;;4.72;1.90;;;;;;;25.43;57.85;99922.09;5027508;28;20120;-70
2022/05/23 07:00:43;;;;;;;2.75;1.55;;;;;;;25.44;57.69;99921.06;5027528;28;20021;-71
2022/05/23 07:03:09;;;;;;;11.05;2.65;;;;;;;25.45;57.70;99928.00;5027841;28;20508;-71
2022/05/23 07:13:53;;;;;;;12.18;1.98;;;;;;;25.45;57.93;99925.31;5023707;28;20133;-69
2022/05/23 07:16:18;;;;;;;4.57;1.70;;;;;;;25.46;58.01;99923.47;5024133;28;20026;-71
2022/05/23 07:18:45;;;;;;;6.63;1.65;;;;;;;25.48;57.64;99923.22;5027536;28;20065;-70
2022/05/23 07:21:10;;;;;;;4.95;1.67;;;;;;;25.49;57.52;99922.16;5025851;28;20136;-71
2022/05/23 07:23:37;;;;;;;5.45;2.08;;;;;;;25.49;57.37;99922.16;5027417;28;20021;-69
2022/05/23 07:26:04;;;;;;;4.85;1.70;;;;;;;25.49;57.40;99914.94;5026231;28;20036;-73
2022/05/23 07:28:30;;;;;;;6.53;2.33;;;;;;;25.48;57.31;99917.88;5026791;28;20030;-72
2022/05/23 07:30:56;;;;;;;5.72;1.50;;;;;;;25.48;57.08;99917.88;5025789;28;20033;-71
2022/05/23 07:33:21;;;;;;;5.05;1.45;;;;;;;25.48;56.87;99912.53;5037299;28;20028;-70
2022/05/23 07:35:54;;;;;;;5.03;1.50;;;;;;;25.46;56.75;99921.59;5020995;28;20037;-71
2022/05/23 07:38:19;;;;;;;2.63;1.27;;;;;;;25.48;56.79;99907.22;5025464;28;20039;-70
2022/05/23 07:40:48;;;;;;;5.97;1.77;;;;;;;25.49;56.60;99903.47;5026184;28;20017;-71
2022/05/23 07:43:16;;;;;;;3.35;1.33;;;;;;;25.51;56.41;99902.16;5026840;28;20536;-72
2022/05/23 07:45:41;;;;;;;1.92;1.38;;;;;;;25.55;55.98;99903.22;5026438;28;20064;-70
2022/05/23 07:48:07;;;;;;;3.85;1.40;;;;;;;25.57;55.93;99908.31;5027299;28;20541;-69
2022/05/23 07:50:32;;;;;;;1.50;1.25;;;;;;;25.57;55.92;99909.13;5035522;28;20140;-72
2022/05/23 08:01:10;;;;;;;3.33;1.40;;;;;;;25.62;55.67;99908.34;5025370;28;20542;-72
2022/05/23 08:03:35;;;;;;;5.05;1.33;;;;;;;25.64;55.50;99909.72;5025729;28;20029;-72
2022/05/23 08:06:01;;;;;;;2.47;1.20;;;;;;;25.66;55.35;99901.47;5020486;28;20120;-73
2022/05/23 08:08:26;;;;;;;5.50;1.90;;;;;;;25.69;55.34;99906.28;5020534;28;20375;-71
2022/05/23 08:10:52;;;;;;;4.75;2.13;;;;;;;25.69;55.16;99907.09;5024960;28;20064;-72
2022/05/23 08:13:17;;;;;;;2.10;1.88;;;;;;;25.71;55.16;99896.19;5025147;28;20034;-73
2022/05/23 08:15:43;;;;;;;5.53;2.20;;;;;;;25.72;55.24;99901.25;5025482;28;20048;-73
2022/05/23 08:18:09;;;;;;;6.38;1.90;;;;;;;25.73;55.30;99902.84;5025217;28;20490;-72
2022/05/23 08:20:37;;;;;;;3.63;1.73;;;;;;;25.73;55.61;99902.06;5023685;28;20029;-75
2022/05/23 08:23:03;;;;;;;2.45;1.65;;;;;;;25.74;55.55;99912.47;5022216;28;20072;-72
2022/05/23 08:25:28;;;;;;;3.65;1.98;;;;;;;25.74;55.83;99911.66;5022331;28;20059;-73
2022/05/23 08:27:54;;;;;;;6.55;2.33;;;;;;;25.74;56.13;99915.13;5025006;28;20029;-73
2022/05/23 08:30:20;;;;;;;9.77;2.67;;;;;;;25.74;56.47;99917.81;5025358;28;20064;-71
2022/05/23 08:32:46;;;;;;;9.48;2.47;;;;;;;25.74;56.59;99914.34;5028544;28;20434;-74
2022/05/23 08:35:12;;;;;;;11.05;2.00;;;;;;;25.75;56.82;99915.94;5027214;28;20084;-70
2022/05/23 08:37:39;;;;;;;3.72;1.95;;;;;;;25.74;56.90;99909.81;5027806;28;20068;-72
2022/05/23 08:40:07;;;;;;;7.18;2.72;;;;;;;25.75;56.54;99916.75;5030667;28;20366;-72
2022/05/23 08:42:53;;;;;;;6.03;2.00;;;;;;;25.75;56.60;99903.41;5028279;28;20108;-71
2022/05/23 08:45:32;;;;;;;2.63;1.80;;;;;;;25.70;56.33;99899.91;5024178;28;20057;-73
2022/05/23 08:48:19;;;;;;;3.90;1.85;;;;;;;25.66;55.93;99904.13;5027420;28;20029;-73
2022/05/23 08:51:18;;;;;;;2.00;1.80;;;;;;;25.62;55.91;99903.00;5027338;28;20056;-72
2022/05/23 08:54:19;;;;;;;4.30;1.50;;;;;;;25.60;55.94;99905.13;5007325;28;20040;-73
2022/05/23 08:56:55;;;;;;;4.90;1.50;;;;;;;25.61;55.83;99912.06;5025279;28;20124;-74
2022/05/23 08:59:34;;;;;;;1.95;1.50;;;;;;;25.61;56.38;99906.75;5027934;28;20038;-71
2022/05/23 09:02:05;;;;;;;3.30;1.77;;;;;;;25.63;56.56;99915.28;5026508;28;20021;-73
2022/05/23 09:04:42;;;;;;;4.15;1.20;;;;;;;25.61;56.11;99914.75;5030263;28;20029;-70
2022/05/23 09:07:12;;;;;;;2.70;1.30;;;;;;;25.61;55.84;99907.53;5022413;28;20028;-72
2022/05/23 09:09:37;;;;;;;1.65;1.15;;;;;;;25.61;55.77;99912.88;5030185;28;20029;-73
2022/05/23 09:12:12;;;;;;;3.13;1.25;;;;;;;25.60;55.42;99905.94;5028811;28;20028;-73
2022/05/23 09:14:38;;;;;;;4.75;1.85;;;;;;;25.60;55.41;99908.59;5029776;28;20033;-73
2022/05/23 09:17:09;;;;;;;5.20;1.75;;;;;;;25.61;55.31;99906.75;5030135;28;20029;-72
2022/05/23 09:20:00;;;;;;;3.63;1.73;;;;;;;25.60;55.07;99899.81;5030064;28;20037;-72
2022/05/23 09:22:31;;;;;;;3.88;1.27;;;;;;;25.60;55.07;99895.28;5027698;28;20029;-72
2022/05/23 09:24:59;;;;;;;5.30;1.85;;;;;;;25.61;55.21;99875.53;5028823;28;20052;-73
2022/05/23 09:27:31;;;;;;;2.47;1.10;;;;;;;25.62;55.15;99889.69;5029010;28;20489;-72
2022/05/23 09:29:58;;;;;;;4.70;2.22;;;;;;;25.67;55.21;99892.41;5029554;28;20394;-72
2022/05/23 09:32:59;;;;;;;3.90;1.50;;;;;;;25.65;55.38;99886.53;5028274;28;20029;-72
2022/05/23 09:35:46;;;;;;;2.45;1.50;;;;;;;25.70;55.14;99886.56;5007259;28;20083;-72
2022/05/23 09:38:29;;;;;;;2.13;1.48;;;;;;;25.71;55.49;99877.50;5029367;28;20025;-73
2022/05/23 09:40:55;;;;;;;4.03;1.40;;;;;;;25.71;55.32;99875.63;5028269;28;20043;-72
2022/05/23 09:49:17;;;;;;;2.20;1.38;;;;;;;25.70;54.31;99858.03;5029540;28;20035;-72
2022/05/23 09:51:56;;;;;;;2.38;1.27;;;;;;;25.72;54.18;99868.44;5027941;28;20097;-73
2022/05/23 09:54:37;;;;;;;2.72;1.60;;;;;;;25.74;54.27;99864.44;5029322;28;20128;-73
2022/05/23 09:57:26;;;;;;;3.05;1.95;;;;;;;25.73;54.32;99856.69;5027212;28;20117;-73
2022/05/23 10:00:17;;;;;;;6.43;1.63;;;;;;;25.70;54.13;99857.22;5021280;28;20041;-73
2022/05/23 10:02:59;;;;;;;3.10;1.50;;;;;;;25.71;54.29;99851.63;5027708;28;20549;-72
2022/05/23 10:05:33;;;;;;;2.28;1.15;;;;;;;25.73;54.23;99846.03;5026918;28;20464;-72
2022/05/23 10:08:05;;;;;;;3.85;1.45;;;;;;;25.73;54.19;99846.03;5028601;28;20080;-73
2022/05/23 10:10:34;;;;;;;2.42;1.17;;;;;;;25.71;54.07;99840.16;5024416;28;20040;-73
2022/05/23 10:13:24;;;;;;;2.35;1.33;;;;;;;25.70;53.80;99844.69;5028063;28;20192;-72
2022/05/23 10:15:55;;;;;;;4.70;1.52;;;;;;;25.71;54.26;99827.63;5027403;28;20048;-72
2022/05/23 10:18:34;;;;;;;6.70;1.70;;;;;;;25.70;54.11;99823.34;5035031;28;20087;-72
2022/05/23 10:21:01;;;;;;;4.07;1.65;;;;;;;25.78;55.20;99822.84;5027552;28;20030;-71
2022/05/23 10:23:33;;;;;;;38.10;13.35;;;;;;;25.86;56.36;99826.09;5026380;28;20071;-71
2022/05/23 10:26:05;;;;;;;1999.90;986.17;;;;;;;26.16;58.67;99825.38;5027449;28;20049;-73
2022/05/23 10:28:48;;;;;;;1432.38;852.55;;;;;;;26.48;57.64;99815.34;5024137;28;20030;-72
2022/05/23 10:31:28;;;;;;;935.40;605.85;;;;;;;26.61;57.64;99819.38;5024038;28;21477;-72
2022/05/23 10:34:01;;;;;;;646.60;497.33;;;;;;;26.67;57.31;99827.13;5027175;28;20381;-72
2022/05/23 10:36:30;;;;;;;643.35;511.27;;;;;;;26.76;56.97;99828.22;5026770;28;20444;-71
2022/05/23 10:42:09;;;;;;;469.73;335.08;;;;;;;26.60;56.30;99826.59;5023716;28;20103;-71
2022/05/23 10:44:37;;;;;;;391.48;286.20;;;;;;;26.54;55.93;99818.81;5028262;28;20029;-71
2022/05/23 10:47:41;;;;;;;294.55;213.10;;;;;;;26.47;55.47;99815.63;5024823;28;20067;-72
2022/05/23 10:50:13;;;;;;;259.50;190.68;;;;;;;26.44;55.61;99815.09;5022935;28;20045;-71
2022/05/23 10:52:59;;;;;;;215.25;150.15;;;;;;;26.40;55.16;99808.69;5022948;28;20682;-72
2022/05/23 10:55:36;;;;;;;178.20;128.65;;;;;;;26.38;55.18;99805.47;5024578;28;20029;-72
2022/05/23 10:58:36;;;;;;;136.98;103.63;;;;;;;26.35;54.97;99803.31;5024338;28;20116;-73
2022/05/23 11:01:32;;;;;;;126.60;91.03;;;;;;;26.35;56.02;99813.19;5014604;28;20413;-71
2022/05/23 11:04:26;;;;;;;105.50;76.72;;;;;;;26.34;56.14;99811.59;5019408;28;20573;-73
2022/05/23 11:06:57;;;;;;;48.88;34.35;;;;;;;26.30;54.93;99805.16;5024536;28;20445;-73
2022/05/23 11:09:41;;;;;;;21.38;13.40;;;;;;;26.25;53.72;99794.44;5024371;28;20091;-73
2022/05/23 11:12:40;;;;;;;17.40;11.18;;;;;;;26.23;53.44;99796.56;5026342;28;20118;-71
2022/05/23 11:15:24;;;;;;;7.22;4.85;;;;;;;26.22;52.98;99800.31;4998995;28;20144;-71
2022/05/23 11:18:10;;;;;;;8.23;3.88;;;;;;;26.17;52.48;99797.63;5024001;28;20481;-72
2022/05/23 11:20:38;;;;;;;8.15;3.10;;;;;;;26.18;52.47;99796.56;5027451;28;20385;-72
2022/05/23 11:23:21;;;;;;;3.30;2.67;;;;;;;26.17;52.25;99795.75;5023364;28;20029;-73
2022/05/23 11:25:53;;;;;;;3.42;2.22;;;;;;;26.19;52.21;99800.84;5027641;28;20058;-73
2022/05/23 11:34:17;;;;;;;8.63;3.42;;;;;;;26.19;52.76;99782.16;5019952;28;20531;-71
2022/05/23 11:36:57;;;;;;;7.13;2.38;;;;;;;26.23;52.70;99781.38;5024680;28;20033;-72
2022/05/23 11:39:42;;;;;;;3.90;2.35;;;;;;;26.24;52.47;99782.16;5033186;28;20303;-71
2022/05/23 11:42:30;;;;;;;6.73;2.43;;;;;;;26.22;52.54;99778.97;5024280;28;20040;-71
2022/05/23 11:45:56;;;;;;;5.88;2.28;;;;;;;26.21;52.10;99774.69;5023020;28;20515;-71
2022/05/23 11:47:48;;;;;;;2.85;2.30;;;;;;;26.22;51.90;99779.75;5017786;28;20045;-72
2022/05/23 11:50:19;;;;;;;3.22;2.53;;;;;;;26.26;51.77;99769.34;5026958;28;20049;-72
2022/05/23 11:52:50;;;;;;;6.57;2.05;;;;;;;26.29;51.45;99774.16;5027187;28;20025;-72
2022/05/23 11:55:51;;;;;;;2.92;1.52;;;;;;;26.28;51.31;99772.56;5027401;28;20397;-73
2022/05/23 11:58:36;;;;;;;5.63;2.22;;;;;;;26.26;51.15;99772.03;4990087;28;20568;-72
2022/05/23 12:01:09;;;;;;;5.15;2.03;;;;;;;26.28;51.25;99770.69;5007716;28;20084;-72
2022/05/23 12:03:50;;;;;;;5.15;2.22;;;;;;;26.25;51.20;99763.22;5007914;28;20116;-72
2022/05/23 12:06:24;;;;;;;3.22;2.50;;;;;;;26.28;51.23;99764.56;5021958;28;20371;-71
2022/05/23 12:09:05;;;;;;;4.53;1.65;;;;;;;26.29;51.73;99764.28;5028895;28;20034;-72
2022/05/23 12:11:37;;;;;;;6.32;2.70;;;;;;;26.32;51.78;99769.13;5029485;28;20079;-72
2022/05/23 12:14:12;;;;;;;9.65;2.50;;;;;;;26.34;51.71;99767.00;5029671;28;20056;-73
2022/05/23 12:16:41;;;;;;;8.52;2.40;;;;;;;26.34;51.74;99756.31;5028909;28;20041;-71
2022/05/23 12:19:39;;;;;;;5.10;2.10;;;;;;;26.35;51.81;99752.59;5028890;28;20033;-71
2022/05/23 12:22:20;;;;;;;7.15;2.35;;;;;;;26.38;52.00;99751.25;5029343;28;20153;-71
2022/05/23 12:24:59;;;;;;;4.75;2.00;;;;;;;26.42;52.08;99747.00;5030154;28;20040;-72
2022/05/23 12:27:30;;;;;;;3.97;1.70;;;;;;;26.43;51.96;99744.06;5028864;28;20061;-71
2022/05/23 12:30:35;;;;;;;6.38;1.80;;;;;;;26.45;52.08;99743.78;5030764;28;20033;-72
2022/05/23 12:33:01;;;;;;;5.43;1.80;;;;;;;26.48;52.19;99737.09;4983385;28;20030;-73
2022/05/23 12:35:48;;;;;;;8.13;2.00;;;;;;;26.49;52.30;99744.84;4986919;28;20161;-72
2022/05/23 12:38:16;;;;;;;3.60;1.88;;;;;;;26.49;52.99;99733.34;4987079;28;20088;-71
2022/05/23 12:41:07;;;;;;;4.57;1.75;;;;;;;26.50;53.57;99734.94;4988325;28;20530;-71
2022/05/23 12:43:49;;;;;;;3.92;1.77;;;;;;;26.48;53.40;99732.53;4985933;28;20082;-72